Time;durP1;ratioP1;P1;durP2;ratioP2;P2;SDS_P1;SDS_P2;PMS_P1;PMS_P2;Temp;Humidity;BMP_temperature;BMP_pressure;BME280_temperature;BME280_humidity;BME280_pressure;Samples;Min_cycle;Max_cycle;Signal;HPM_P1;HPM_P2
2023/02/26 00:00:30;;;;;;;;;;;19.30;31.80;;;;;;8364138;28;19921;-44
2023/02/26 00:04:30;;;;;;;;;;;19.30;31.70;;;;;;8362662;28;19924;-44
2023/02/26 00:08:31;;;;;;;;;;;19.30;31.90;;;;;;8363115;28;20289;-45
2023/02/26 00:12:32;;;;;;;;;;;19.30;31.70;;;;;;8362898;28;20374;-44
2023/02/26 00:16:34;;;;;;;;;;;19.30;31.80;;;;;;8362400;28;20385;-44
2023/02/26 00:20:35;;;;;;;;;;;19.20;31.60;;;;;;8363059;28;19965;-44
2023/02/26 00:24:35;;;;;;;;;;;19.20;31.70;;;;;;8362157;28;19924;-41
2023/02/26 00:28:36;;;;;;;;;;;19.20;32.00;;;;;;8362723;28;19964;-44
2023/02/26 00:32:38;;;;;;;;;;;19.20;31.60;;;;;;8362600;28;19917;-44
2023/02/26 00:36:38;;;;;;;;;;;19.20;31.60;;;;;;8362511;28;19921;-45
2023/02/26 00:40:46;;;;;;;;;;;19.20;31.70;;;;;;8362474;28;19929;-44
2023/02/26 00:44:47;;;;;;;;;;;19.10;31.60;;;;;;8362564;28;19975;-44
2023/02/26 00:49:12;;;;;;;;;;;19.10;31.60;;;;;;8365470;28;19917;-44
2023/02/26 00:53:33;;;;;;;;;;;19.10;31.60;;;;;;8369127;28;20528;-44
2023/02/26 00:57:33;;;;;;;;;;;19.00;31.60;;;;;;8368893;28;19975;-45
2023/02/26 01:01:33;;;;;;;;;;;19.10;31.60;;;;;;8369311;28;19920;-44
2023/02/26 01:05:34;;;;;;;;;;;19.00;31.50;;;;;;8368855;28;19971;-44
2023/02/26 01:09:36;;;;;;;;;;;19.00;31.50;;;;;;8368724;28;19948;-43
2023/02/26 01:13:36;;;;;;;;;;;19.00;31.50;;;;;;8368337;28;19959;-43
2023/02/26 01:17:44;;;;;;;;;;;19.00;31.60;;;;;;8367575;28;19974;-43
2023/02/26 01:21:47;;;;;;;;;;;19.00;31.60;;;;;;8368082;28;19913;-43
2023/02/26 01:25:58;;;;;;;;;;;18.90;31.60;;;;;;8368432;28;20336;-43
2023/02/26 01:29:59;;;;;;;;;;;18.90;31.60;;;;;;8368215;28;19995;-43
2023/02/26 01:34:04;;;;;;;;;;;18.90;31.50;;;;;;8367172;28;19967;-43
2023/02/26 01:38:27;;;;;;;;;;;18.90;31.60;;;;;;8367661;28;19921;-43
2023/02/26 01:42:30;;;;;;;;;;;18.90;31.50;;;;;;8367879;28;20010;-43
2023/02/26 01:46:49;;;;;;;;;;;18.80;31.50;;;;;;8367754;28;20007;-44
2023/02/26 01:50:50;;;;;;;;;;;18.80;31.40;;;;;;8367538;28;19924;-45
2023/02/26 01:54:50;;;;;;;;;;;18.80;31.50;;;;;;8366530;28;19913;-44
2023/02/26 01:58:52;;;;;;;;;;;18.80;31.40;;;;;;8366070;28;19928;-43
2023/02/26 02:02:52;;;;;;;;;;;18.80;31.50;;;;;;8367205;28;20282;-43
2023/02/26 02:06:53;;;;;;;;;;;18.70;31.40;;;;;;8365893;28;19991;-43
2023/02/26 02:10:54;;;;;;;;;;;18.80;31.50;;;;;;8363908;28;19923;-43
2023/02/26 02:14:57;;;;;;;;;;;18.70;31.40;;;;;;8366472;28;20007;-43
2023/02/26 02:19:17;;;;;;;;;;;18.70;31.40;;;;;;8365933;28;19924;-43
2023/02/26 02:23:31;;;;;;;;;;;18.70;31.40;;;;;;8366409;28;19964;-43
2023/02/26 02:27:41;;;;;;;;;;;18.70;31.40;;;;;;8366118;28;20293;-43
2023/02/26 02:31:42;;;;;;;;;;;18.70;31.40;;;;;;8366131;28;19913;-42
2023/02/26 02:35:48;;;;;;;;;;;18.60;31.30;;;;;;8366098;28;19925;-42
2023/02/26 02:39:51;;;;;;;;;;;18.60;31.30;;;;;;8365251;28;20378;-43
2023/02/26 02:43:53;;;;;;;;;;;18.60;31.30;;;;;;8365624;28;20357;-42
2023/02/26 02:47:57;;;;;;;;;;;18.50;31.30;;;;;;8365583;28;19924;-42
2023/02/26 02:52:04;;;;;;;;;;;18.60;31.30;;;;;;8365252;28;19912;-42
2023/02/26 02:56:07;;;;;;;;;;;18.60;31.30;;;;;;8365576;28;19925;-42
2023/02/26 03:00:09;;;;;;;;;;;18.50;31.40;;;;;;8365620;28;19925;-42
2023/02/26 03:04:12;;;;;;;;;;;18.50;31.30;;;;;;8364534;28;20000;-42
2023/02/26 03:08:14;;;;;;;;;;;18.50;31.30;;;;;;8364848;28;20422;-42
2023/02/26 03:12:15;;;;;;;;;;;18.50;31.30;;;;;;8365102;28;19912;-42
2023/02/26 03:16:24;;;;;;;;;;;18.40;31.30;;;;;;8364107;28;20361;-42
2023/02/26 03:20:28;;;;;;;;;;;18.40;31.80;;;;;;8364407;28;19924;-42
2023/02/26 03:24:34;;;;;;;;;;;18.40;31.20;;;;;;8364440;28;19963;-42
2023/02/26 03:28:39;;;;;;;;;;;18.40;31.20;;;;;;8363970;28;20381;-42
2023/02/26 03:32:50;;;;;;;;;;;18.40;31.20;;;;;;8364732;28;19913;-42
2023/02/26 03:36:55;;;;;;;;;;;18.40;31.20;;;;;;8363863;28;19947;-44
2023/02/26 03:41:02;;;;;;;;;;;18.40;31.20;;;;;;8364219;28;19916;-42
2023/02/26 03:45:28;;;;;;;;;;;18.30;31.10;;;;;;8363747;28;19924;-43
2023/02/26 03:49:32;;;;;;;;;;;18.30;31.10;;;;;;8359188;28;19920;-42
2023/02/26 03:53:34;;;;;;;;;;;18.30;31.10;;;;;;8363917;28;19917;-43
2023/02/26 03:57:35;;;;;;;;;;;18.30;31.10;;;;;;8363656;28;20007;-42
2023/02/26 04:01:42;;;;;;;;;;;18.30;31.10;;;;;;8363628;28;20313;-42
2023/02/26 04:05:46;;;;;;;;;;;18.30;31.00;;;;;;8363356;28;19921;-42
2023/02/26 04:09:47;;;;;;;;;;;18.20;31.00;;;;;;8362832;28;20293;-42
2023/02/26 04:13:49;;;;;;;;;;;18.20;31.00;;;;;;8363127;28;20377;-42
2023/02/26 04:17:49;;;;;;;;;;;18.20;31.00;;;;;;8363264;28;20008;-42
2023/02/26 04:21:50;;;;;;;;;;;18.20;31.00;;;;;;8363674;28;19940;-43
2023/02/26 04:25:50;;;;;;;;;;;18.20;31.00;;;;;;8373846;28;20533;-42
2023/02/26 04:29:51;;;;;;;;;;;18.20;31.00;;;;;;8373824;28;20070;-42
2023/02/26 04:33:51;;;;;;;;;;;18.20;31.00;;;;;;8373540;28;19939;-41
2023/02/26 04:37:52;;;;;;;;;;;18.20;31.00;;;;;;8373858;28;20409;-42
2023/02/26 04:41:52;;;;;;;;;;;18.20;31.00;;;;;;8373799;28;19917;-41
2023/02/26 04:45:52;;;;;;;;;;;18.20;31.00;;;;;;8373385;28;19917;-42
2023/02/26 04:49:53;;;;;;;;;;;18.20;31.00;;;;;;8373887;28;19952;-42
2023/02/26 04:53:53;;;;;;;;;;;18.20;31.00;;;;;;8374350;28;19913;-42
2023/02/26 04:57:54;;;;;;;;;;;18.20;31.00;;;;;;8373377;28;20051;-41
2023/02/26 05:01:54;;;;;;;;;;;18.20;31.00;;;;;;8371861;28;19921;-42
2023/02/26 05:05:55;;;;;;;;;;;18.10;31.00;;;;;;8360896;28;19947;-42
2023/02/26 05:09:56;;;;;;;;;;;18.20;31.10;;;;;;8373067;28;19951;-42
2023/02/26 05:13:58;;;;;;;;;;;18.20;30.90;;;;;;8372918;28;21300;-42
2023/02/26 05:17:58;;;;;;;;;;;18.30;31.10;;;;;;8373594;28;19927;-42
2023/02/26 05:21:59;;;;;;;;;;;18.40;31.00;;;;;;8373363;28;19924;-43
2023/02/26 05:25:59;;;;;;;;;;;18.50;30.90;;;;;;8373393;28;19916;-42
2023/02/26 05:30:00;;;;;;;;;;;18.60;30.80;;;;;;8373140;28;20393;-42
2023/02/26 05:34:00;;;;;;;;;;;18.70;30.80;;;;;;8369793;28;19916;-43
2023/02/26 05:38:01;;;;;;;;;;;18.80;30.80;;;;;;8368217;28;19964;-43
2023/02/26 05:42:01;;;;;;;;;;;18.90;30.80;;;;;;8367790;28;20047;-42
2023/02/26 05:46:02;;;;;;;;;;;18.90;30.60;;;;;;8367178;28;20282;-43
2023/02/26 05:50:03;;;;;;;;;;;19.10;30.70;;;;;;8367404;28;20425;-43
2023/02/26 05:54:04;;;;;;;;;;;19.10;30.60;;;;;;8367225;28;19917;-42
2023/02/26 05:58:04;;;;;;;;;;;19.10;30.60;;;;;;8366791;28;19944;-42
2023/02/26 06:02:04;;;;;;;;;;;19.20;30.60;;;;;;8367089;28;20024;-42
2023/02/26 06:06:05;;;;;;;;;;;19.20;30.60;;;;;;8366963;28;19971;-42
2023/02/26 06:10:07;;;;;;;;;;;19.30;30.60;;;;;;8366308;28;19960;-43
2023/02/26 06:14:07;;;;;;;;;;;19.30;30.50;;;;;;8367002;28;19917;-43
2023/02/26 06:18:08;;;;;;;;;;;19.30;30.40;;;;;;8366841;28;19928;-44
2023/02/26 06:22:08;;;;;;;;;;;19.30;30.40;;;;;;8365984;28;19963;-43
2023/02/26 06:26:09;;;;;;;;;;;19.40;30.50;;;;;;8366245;28;20337;-43
2023/02/26 06:30:10;;;;;;;;;;;19.40;30.50;;;;;;8366378;28;19928;-43
2023/02/26 06:34:10;;;;;;;;;;;19.40;30.50;;;;;;8365500;28;19919;-44
2023/02/26 06:38:11;;;;;;;;;;;19.40;30.50;;;;;;8366528;28;19960;-43
2023/02/26 06:42:11;;;;;;;;;;;19.40;30.60;;;;;;8365798;28;19921;-43
2023/02/26 06:46:12;;;;;;;;;;;19.40;30.60;;;;;;8364856;28;20417;-43
2023/02/26 06:50:12;;;;;;;;;;;19.40;30.50;;;;;;8366014;28;19963;-43
2023/02/26 06:54:13;;;;;;;;;;;19.40;30.60;;;;;;8365439;28;19913;-44
2023/02/26 06:58:13;;;;;;;;;;;19.40;30.70;;;;;;8364824;28;20352;-43
2023/02/26 07:02:18;;;;;;;;;;;19.40;30.50;;;;;;8365257;28;20035;-43
2023/02/26 07:06:18;;;;;;;;;;;19.40;30.50;;;;;;8364906;28;19962;-43
2023/02/26 07:10:20;;;;;;;;;;;19.40;30.40;;;;;;8363186;28;19917;-43
2023/02/26 07:14:20;;;;;;;;;;;19.40;30.50;;;;;;8365010;28;19913;-43
2023/02/26 07:18:21;;;;;;;;;;;19.40;30.50;;;;;;8364758;28;19928;-43
2023/02/26 07:22:21;;;;;;;;;;;19.40;30.50;;;;;;8363900;28;19924;-43
2023/02/26 07:26:22;;;;;;;;;;;19.50;30.50;;;;;;8364289;28;19939;-43
2023/02/26 07:30:22;;;;;;;;;;;19.50;30.40;;;;;;8364420;28;20047;-43
2023/02/26 07:34:23;;;;;;;;;;;19.50;30.40;;;;;;8363946;28;20396;-43
2023/02/26 07:38:23;;;;;;;;;;;19.50;30.40;;;;;;8364213;28;19932;-42
2023/02/26 07:42:24;;;;;;;;;;;19.50;30.40;;;;;;8363822;28;19917;-42
2023/02/26 07:46:24;;;;;;;;;;;19.50;30.30;;;;;;8363356;28;19916;-43
2023/02/26 07:50:25;;;;;;;;;;;19.60;30.20;;;;;;8363888;28;19970;-42
2023/02/26 07:54:25;;;;;;;;;;;19.70;30.10;;;;;;8363734;28;19913;-43
2023/02/26 07:58:25;;;;;;;;;;;19.70;30.20;;;;;;8362282;28;20022;-43
2023/02/26 08:02:26;;;;;;;;;;;19.70;30.20;;;;;;8363652;28;19999;-43
2023/02/26 08:06:27;;;;;;;;;;;19.80;30.20;;;;;;8362136;28;19924;-44
2023/02/26 08:10:28;;;;;;;;;;;19.80;30.20;;;;;;8363309;28;19921;-44
2023/02/26 08:14:28;;;;;;;;;;;19.80;30.10;;;;;;8363498;28;19920;-44
2023/02/26 08:18:29;;;;;;;;;;;19.70;30.00;;;;;;8362854;28;19925;-43
2023/02/26 08:22:29;;;;;;;;;;;19.70;30.20;;;;;;8362278;28;20290;-43
2023/02/26 08:26:30;;;;;;;;;;;19.70;30.10;;;;;;8363132;28;19960;-43
2023/02/26 08:30:30;;;;;;;;;;;19.70;30.20;;;;;;8362724;28;20035;-43
2023/02/26 08:34:31;;;;;;;;;;;19.60;30.20;;;;;;8362507;28;19913;-44
2023/02/26 08:38:31;;;;;;;;;;;19.60;30.10;;;;;;8362537;28;20011;-44
2023/02/26 08:42:31;;;;;;;;;;;19.60;30.00;;;;;;8362512;28;20377;-44
2023/02/26 08:46:32;;;;;;;;;;;19.60;30.10;;;;;;8361804;28;19917;-45
2023/02/26 08:50:32;;;;;;;;;;;19.60;29.90;;;;;;8361231;28;19927;-43
2023/02/26 08:54:33;;;;;;;;;;;19.60;29.90;;;;;;8362487;28;19920;-45
2023/02/26 08:58:33;;;;;;;;;;;19.70;30.00;;;;;;8361743;28;19929;-44
2023/02/26 09:02:34;;;;;;;;;;;19.70;29.90;;;;;;8362175;28;19948;-43
2023/02/26 09:06:34;;;;;;;;;;;19.80;29.90;;;;;;8363043;28;19943;-45
2023/02/26 09:10:35;;;;;;;;;;;19.80;29.90;;;;;;8366303;28;19921;-44
2023/02/26 09:14:35;;;;;;;;;;;19.80;29.90;;;;;;8368466;28;19913;-43
2023/02/26 09:18:36;;;;;;;;;;;19.90;29.80;;;;;;8368189;28;19925;-44
2023/02/26 09:22:36;;;;;;;;;;;19.90;29.70;;;;;;8367706;28;20340;-45
2023/02/26 09:26:37;;;;;;;;;;;19.90;29.70;;;;;;8368363;28;19947;-46
2023/02/26 09:30:37;;;;;;;;;;;20.00;29.70;;;;;;8367379;28;20011;-43
2023/02/26 09:34:38;;;;;;;;;;;20.00;29.70;;;;;;8368141;28;19924;-45
2023/02/26 09:38:38;;;;;;;;;;;20.00;29.60;;;;;;8367791;28;19932;-44
2023/02/26 09:42:48;;;;;;;;;;;20.00;29.60;;;;;;8367048;28;19916;-44
2023/02/26 09:46:58;;;;;;;;;;;20.00;29.50;;;;;;8367819;28;19925;-44
2023/02/26 09:50:59;;;;;;;;;;;19.90;29.50;;;;;;8367093;28;19916;-44
2023/02/26 09:55:08;;;;;;;;;;;19.90;29.60;;;;;;8366658;28;19935;-45
2023/02/26 09:59:09;;;;;;;;;;;19.90;29.60;;;;;;8366816;28;20012;-45
2023/02/26 10:03:22;;;;;;;;;;;19.80;29.50;;;;;;8366666;28;19994;-43
2023/02/26 10:07:41;;;;;;;;;;;19.90;29.50;;;;;;8366220;28;19957;-44
2023/02/26 10:11:47;;;;;;;;;;;19.80;29.50;;;;;;8366647;28;19924;-45
2023/02/26 10:15:49;;;;;;;;;;;19.80;29.50;;;;;;8365948;28;19924;-45
2023/02/26 10:19:52;;;;;;;;;;;19.80;29.50;;;;;;8365824;28;19921;-44
2023/02/26 10:23:55;;;;;;;;;;;19.80;29.60;;;;;;8366430;28;19929;-44
2023/02/26 10:28:28;;;;;;;;;;;19.70;29.50;;;;;;8365512;28;20007;-44
2023/02/26 10:32:35;;;;;;;;;;;19.80;29.50;;;;;;8321649;28;19932;-45
2023/02/26 10:36:57;;;;;;;;;;;19.80;29.60;;;;;;8366007;28;19925;-44
2023/02/26 10:41:01;;;;;;;;;;;19.80;29.50;;;;;;8365876;28;19949;-45
2023/02/26 10:45:08;;;;;;;;;;;19.90;29.50;;;;;;8366530;28;19920;-47
2023/02/26 10:49:13;;;;;;;;;;;19.90;29.50;;;;;;8364971;28;19963;-45
2023/02/26 10:53:13;;;;;;;;;;;20.00;29.50;;;;;;8365231;28;20008;-46
2023/02/26 10:57:25;;;;;;;;;;;20.00;29.30;;;;;;8364964;28;20385;-45
2023/02/26 11:01:27;;;;;;;;;;;20.10;29.40;;;;;;8365100;28;20000;-46
2023/02/26 11:05:29;;;;;;;;;;;20.10;29.30;;;;;;8365194;28;19924;-46
2023/02/26 11:09:32;;;;;;;;;;;20.10;29.30;;;;;;8363610;28;20374;-46
2023/02/26 11:13:35;;;;;;;;;;;20.10;29.30;;;;;;8364123;28;19916;-45
2023/02/26 11:17:36;;;;;;;;;;;20.10;29.20;;;;;;8364315;28;19924;-46
2023/02/26 11:21:39;;;;;;;;;;;20.10;29.20;;;;;;8364005;28;19939;-42
2023/02/26 11:25:39;;;;;;;;;;;20.00;29.20;;;;;;8364685;28;19913;-44
2023/02/26 11:29:42;;;;;;;;;;;20.00;29.20;;;;;;8364342;28;19917;-45
2023/02/26 11:33:43;;;;;;;;;;;20.00;29.20;;;;;;8362576;28;20003;-44
2023/02/26 11:37:48;;;;;;;;;;;20.00;29.20;;;;;;8364047;28;20023;-42
2023/02/26 11:41:49;;;;;;;;;;;20.00;29.20;;;;;;8364108;28;20285;-45
2023/02/26 11:45:56;;;;;;;;;;;20.00;29.10;;;;;;8363571;28;19913;-44
2023/02/26 11:50:03;;;;;;;;;;;19.90;29.20;;;;;;8363691;28;20435;-45
2023/02/26 11:54:16;;;;;;;;;;;19.90;29.10;;;;;;8363647;28;19921;-44
2023/02/26 11:58:19;;;;;;;;;;;19.90;29.10;;;;;;8362895;28;20007;-45
2023/02/26 12:02:21;;;;;;;;;;;19.90;29.10;;;;;;8363432;28;19917;-46
2023/02/26 12:06:23;;;;;;;;;;;19.90;29.10;;;;;;8363322;28;19920;-44
2023/02/26 12:10:31;;;;;;;;;;;20.00;29.10;;;;;;8362862;28;19919;-43
2023/02/26 12:14:38;;;;;;;;;;;20.00;29.10;;;;;;8363007;28;19943;-45
2023/02/26 12:18:41;;;;;;;;;;;20.10;29.00;;;;;;8362538;28;20396;-45
2023/02/26 12:22:53;;;;;;;;;;;20.20;29.00;;;;;;8363259;28;19917;-46
2023/02/26 12:27:04;;;;;;;;;;;20.20;28.90;;;;;;8363020;28;19917;-45
2023/02/26 12:31:19;;;;;;;;;;;20.30;28.90;;;;;;8362725;28;19939;-45
2023/02/26 12:35:20;;;;;;;;;;;20.30;28.90;;;;;;8362744;28;19917;-45
2023/02/26 12:39:32;;;;;;;;;;;20.30;28.90;;;;;;8362706;28;19932;-45
2023/02/26 12:43:39;;;;;;;;;;;20.30;28.80;;;;;;8363490;28;19923;-46
2023/02/26 12:47:47;;;;;;;;;;;20.30;28.70;;;;;;8369336;28;19917;-46
2023/02/26 12:52:03;;;;;;;;;;;20.30;28.70;;;;;;8368880;28;19940;-45
2023/02/26 12:56:21;;;;;;;;;;;20.20;28.70;;;;;;8351162;28;19970;-48
2023/02/26 13:00:41;;;;;;;;;;;20.20;28.70;;;;;;8369114;28;19921;-44
2023/02/26 13:04:51;;;;;;;;;;;20.20;28.70;;;;;;8368730;28;19996;-47
2023/02/26 13:09:03;;;;;;;;;;;20.10;28.80;;;;;;8368555;28;19962;-45
2023/02/26 13:13:30;;;;;;;;;;;20.10;28.90;;;;;;8367990;28;20023;-45
2023/02/26 13:17:38;;;;;;;;;;;20.00;28.90;;;;;;8337181;28;19932;-47
2023/02/26 13:21:41;;;;;;;;;;;20.00;28.90;;;;;;8367976;28;19916;-47
2023/02/26 13:25:56;;;;;;;;;;;20.00;28.90;;;;;;8367964;28;19924;-45
2023/02/26 13:30:15;;;;;;;;;;;20.00;29.00;;;;;;8367442;28;20370;-46
2023/02/26 13:34:22;;;;;;;;;;;20.00;29.00;;;;;;8366950;28;19916;-45
2023/02/26 13:38:26;;;;;;;;;;;20.10;29.00;;;;;;8367221;28;19925;-46
2023/02/26 13:42:29;;;;;;;;;;;20.10;29.00;;;;;;8367385;28;19961;-46
2023/02/26 13:46:41;;;;;;;;;;;20.10;28.90;;;;;;8366876;28;20346;-46
2023/02/26 13:51:01;;;;;;;;;;;20.20;28.90;;;;;;8367367;28;19917;-47
2023/02/26 13:55:03;;;;;;;;;;;20.20;28.90;;;;;;8365490;28;20374;-45
2023/02/26 13:59:12;;;;;;;;;;;20.20;29.40;;;;;;8366953;28;19935;-47
2023/02/26 14:03:16;;;;;;;;;;;20.30;29.00;;;;;;8366710;28;20358;-48
2023/02/26 14:07:36;;;;;;;;;;;20.20;28.90;;;;;;8365991;28;19913;-46
2023/02/26 14:11:37;;;;;;;;;;;20.30;29.00;;;;;;8366012;28;19913;-47
2023/02/26 14:16:00;;;;;;;;;;;20.30;29.00;;;;;;8365839;28;20358;-46
2023/02/26 14:20:16;;;;;;;;;;;20.20;28.90;;;;;;8355805;28;19924;-46
2023/02/26 14:24:36;;;;;;;;;;;20.20;28.90;;;;;;8366047;28;19923;-45
2023/02/26 14:28:44;;;;;;;;;;;20.20;28.90;;;;;;8365898;28;19917;-45
2023/02/26 14:32:46;;;;;;;;;;;20.20;28.90;;;;;;8365609;28;20286;-45
2023/02/26 14:36:48;;;;;;;;;;;20.10;28.90;;;;;;8365293;28;19971;-46
2023/02/26 14:40:52;;;;;;;;;;;20.10;29.10;;;;;;8365263;28;19929;-46
2023/02/26 14:45:02;;;;;;;;;;;20.00;29.20;;;;;;8365875;28;19971;-46
2023/02/26 14:49:03;;;;;;;;;;;20.00;29.20;;;;;;8364944;28;19917;-47
2023/02/26 14:53:09;;;;;;;;;;;19.90;29.20;;;;;;8365321;28;19998;-44
2023/02/26 14:57:19;;;;;;;;;;;19.90;29.20;;;;;;8365309;28;20365;-46
2023/02/26 15:01:23;;;;;;;;;;;20.00;29.30;;;;;;8364603;28;19921;-44
2023/02/26 15:05:32;;;;;;;;;;;20.00;29.20;;;;;;8364863;28;19917;-46
2023/02/26 15:09:33;;;;;;;;;;;20.10;29.30;;;;;;8364518;28;19913;-44
2023/02/26 15:13:33;;;;;;;;;;;20.10;29.30;;;;;;8364069;28;19939;-42
2023/02/26 15:17:34;;;;;;;;;;;20.20;29.30;;;;;;8364626;28;19928;-45
2023/02/26 15:21:37;;;;;;;;;;;20.20;29.20;;;;;;8364883;28;19941;-44
2023/02/26 15:25:39;;;;;;;;;;;20.20;29.20;;;;;;8364416;28;20658;-45
2023/02/26 15:29:40;;;;;;;;;;;20.30;29.10;;;;;;8364311;28;19917;-45
2023/02/26 15:33:41;;;;;;;;;;;20.30;29.20;;;;;;8363633;28;20289;-45
2023/02/26 15:37:41;;;;;;;;;;;20.30;29.10;;;;;;8364151;28;19921;-44
2023/02/26 15:41:43;;;;;;;;;;;20.30;29.10;;;;;;8364250;28;19917;-46
2023/02/26 15:45:45;;;;;;;;;;;20.20;29.00;;;;;;8363192;28;19958;-45
2023/02/26 15:49:47;;;;;;;;;;;20.20;29.10;;;;;;8363412;28;19917;-45
2023/02/26 15:53:51;;;;;;;;;;;20.20;29.20;;;;;;8363723;28;20099;-45
2023/02/26 15:57:52;;;;;;;;;;;20.10;29.10;;;;;;8362969;28;20389;-46
2023/02/26 16:01:54;;;;;;;;;;;20.10;29.10;;;;;;8363720;28;20008;-45
2023/02/26 16:05:56;;;;;;;;;;;20.10;29.10;;;;;;8363422;28;20059;-46
2023/02/26 16:10:03;;;;;;;;;;;20.00;29.10;;;;;;8363167;28;19948;-45
2023/02/26 16:14:04;;;;;;;;;;;20.00;29.20;;;;;;8363487;28;20011;-46
2023/02/26 16:18:07;;;;;;;;;;;19.90;29.20;;;;;;8356539;28;19929;-44
2023/02/26 16:22:16;;;;;;;;;;;19.90;29.30;;;;;;8343333;28;19917;-46
2023/02/26 16:26:20;;;;;;;;;;;19.90;29.30;;;;;;8350636;28;19921;-46
2023/02/26 16:30:24;;;;;;;;;;;19.90;29.40;;;;;;8349118;28;19916;-44
2023/02/26 16:34:29;;;;;;;;;;;19.90;29.40;;;;;;8355689;28;19917;-45
2023/02/26 16:38:41;;;;;;;;;;;19.90;29.40;;;;;;8333975;28;19951;-44
2023/02/26 16:42:45;;;;;;;;;;;20.00;29.40;;;;;;8362368;28;19917;-45
2023/02/26 16:46:47;;;;;;;;;;;20.00;29.30;;;;;;8362830;28;19917;-45
2023/02/26 16:51:01;;;;;;;;;;;20.10;29.30;;;;;;8362457;28;19940;-46
2023/02/26 16:55:03;;;;;;;;;;;20.10;29.30;;;;;;8362030;28;19917;-44
2023/02/26 16:59:11;;;;;;;;;;;20.10;29.20;;;;;;8362426;28;19929;-47
2023/02/26 17:03:19;;;;;;;;;;;20.20;29.20;;;;;;8362794;28;20340;-46
2023/02/26 17:07:28;;;;;;;;;;;20.20;29.20;;;;;;8362929;28;20008;-46
2023/02/26 17:11:31;;;;;;;;;;;20.20;29.10;;;;;;8362086;28;19928;-46
2023/02/26 17:15:34;;;;;;;;;;;20.20;29.20;;;;;;8362395;28;19971;-45
2023/02/26 17:19:35;;;;;;;;;;;20.10;29.10;;;;;;8361418;28;19932;-45
2023/02/26 17:23:36;;;;;;;;;;;20.10;29.10;;;;;;8361943;28;20012;-45
2023/02/26 17:27:37;;;;;;;;;;;20.10;29.30;;;;;;8361749;28;20303;-43
2023/02/26 17:31:42;;;;;;;;;;;20.00;29.20;;;;;;8366617;28;19995;-46
2023/02/26 17:35:43;;;;;;;;;;;20.00;29.20;;;;;;8367782;28;19940;-45
2023/02/26 17:39:43;;;;;;;;;;;19.90;29.30;;;;;;8367293;28;19921;-45
2023/02/26 17:43:44;;;;;;;;;;;19.90;29.20;;;;;;8367587;28;19919;-45
2023/02/26 17:47:46;;;;;;;;;;;19.90;29.20;;;;;;8367617;28;19913;-44
2023/02/26 17:51:46;;;;;;;;;;;19.80;29.20;;;;;;8366990;28;19916;-45
2023/02/26 17:55:48;;;;;;;;;;;19.80;29.30;;;;;;8367158;28;19967;-45
2023/02/26 17:59:49;;;;;;;;;;;19.80;29.30;;;;;;8367300;28;19933;-45
2023/02/26 18:03:49;;;;;;;;;;;19.90;29.40;;;;;;8366385;28;20323;-45
2023/02/26 18:07:50;;;;;;;;;;;19.80;29.70;;;;;;8367043;28;19994;-45
2023/02/26 18:11:50;;;;;;;;;;;19.90;29.40;;;;;;8366836;28;19916;-45
2023/02/26 18:15:51;;;;;;;;;;;19.90;29.20;;;;;;8365992;28;19917;-44
2023/02/26 18:19:52;;;;;;;;;;;20.00;29.20;;;;;;8366681;28;19917;-45
2023/02/26 18:23:55;;;;;;;;;;;20.00;29.10;;;;;;8366243;28;19913;-45
2023/02/26 18:27:59;;;;;;;;;;;20.10;29.20;;;;;;8365990;28;20000;-45
2023/02/26 18:32:01;;;;;;;;;;;20.10;29.10;;;;;;8366401;28;19925;-45
2023/02/26 18:36:02;;;;;;;;;;;20.10;29.20;;;;;;8366171;28;19933;-44
2023/02/26 18:40:03;;;;;;;;;;;20.10;29.20;;;;;;8365410;28;19920;-44
2023/02/26 18:44:03;;;;;;;;;;;20.10;29.10;;;;;;8365163;28;20388;-44
2023/02/26 18:48:04;;;;;;;;;;;20.10;29.10;;;;;;8365831;28;19917;-43
2023/02/26 18:52:04;;;;;;;;;;;20.10;29.10;;;;;;8365100;28;20283;-45
2023/02/26 18:56:05;;;;;;;;;;;20.00;29.20;;;;;;8365544;28;19927;-45
2023/02/26 19:00:07;;;;;;;;;;;20.00;29.20;;;;;;8365708;28;19927;-43
2023/02/26 19:04:08;;;;;;;;;;;20.00;29.20;;;;;;8364662;28;19917;-44
2023/02/26 19:08:08;;;;;;;;;;;19.90;29.10;;;;;;8365452;28;19952;-45
2023/02/26 19:12:13;;;;;;;;;;;19.90;29.20;;;;;;8364733;28;20005;-44
2023/02/26 19:16:13;;;;;;;;;;;19.90;29.20;;;;;;8364152;28;19924;-44
2023/02/26 19:20:14;;;;;;;;;;;19.80;29.10;;;;;;8364535;28;19924;-45
2023/02/26 19:24:14;;;;;;;;;;;19.80;29.20;;;;;;8364463;28;19912;-45
2023/02/26 19:28:15;;;;;;;;;;;19.80;29.20;;;;;;8364129;28;19919;-45
2023/02/26 19:32:15;;;;;;;;;;;19.80;29.20;;;;;;8364461;28;19970;-44
2023/02/26 19:36:20;;;;;;;;;;;19.80;29.30;;;;;;8363906;28;20278;-45
2023/02/26 19:40:21;;;;;;;;;;;19.90;29.40;;;;;;8363517;28;19916;-44
2023/02/26 19:44:22;;;;;;;;;;;19.90;29.30;;;;;;8364104;28;19920;-45
2023/02/26 19:48:22;;;;;;;;;;;19.90;29.20;;;;;;8364027;28;19958;-44
2023/02/26 19:52:22;;;;;;;;;;;20.00;29.20;;;;;;8362781;28;19921;-43
2023/02/26 19:56:23;;;;;;;;;;;20.00;29.30;;;;;;8363322;28;19932;-44
2023/02/26 20:00:24;;;;;;;;;;;20.00;29.20;;;;;;8363384;28;19928;-43
2023/02/26 20:04:24;;;;;;;;;;;20.00;29.10;;;;;;8363070;28;19913;-43
2023/02/26 20:08:26;;;;;;;;;;;20.10;29.20;;;;;;8362361;28;19939;-44
2023/02/26 20:12:29;;;;;;;;;;;20.10;29.20;;;;;;8363198;28;20289;-44
2023/02/26 20:16:29;;;;;;;;;;;20.10;29.10;;;;;;8362599;28;19975;-45
2023/02/26 20:20:30;;;;;;;;;;;20.00;29.00;;;;;;8363212;28;19924;-45
2023/02/26 20:24:31;;;;;;;;;;;20.00;29.00;;;;;;8363311;28;19913;-45
2023/02/26 20:28:32;;;;;;;;;;;20.00;29.00;;;;;;8362349;28;20401;-45
2023/02/26 20:32:32;;;;;;;;;;;19.90;29.00;;;;;;8363028;28;19916;-45
2023/02/26 20:36:34;;;;;;;;;;;19.90;29.00;;;;;;8362676;28;19932;-44
2023/02/26 20:40:34;;;;;;;;;;;19.80;29.00;;;;;;8362211;28;19996;-43
2023/02/26 20:44:35;;;;;;;;;;;19.80;29.00;;;;;;8362914;28;19920;-45
2023/02/26 20:48:40;;;;;;;;;;;19.80;29.10;;;;;;8362662;28;19921;-43
2023/02/26 20:52:40;;;;;;;;;;;19.80;29.20;;;;;;8362590;28;19924;-44
2023/02/26 20:56:41;;;;;;;;;;;19.80;29.20;;;;;;8362541;28;19960;-44
2023/02/26 21:00:41;;;;;;;;;;;19.80;29.30;;;;;;8361997;28;19921;-43
2023/02/26 21:04:42;;;;;;;;;;;19.80;29.30;;;;;;8364358;28;19952;-43
2023/02/26 21:08:42;;;;;;;;;;;19.90;29.30;;;;;;8368917;28;19924;-44
2023/02/26 21:12:43;;;;;;;;;;;19.90;29.10;;;;;;8368116;28;19970;-42
2023/02/26 21:16:43;;;;;;;;;;;19.90;29.10;;;;;;8368489;28;19925;-44
2023/02/26 21:20:44;;;;;;;;;;;19.90;29.10;;;;;;8368402;28;19920;-44
2023/02/26 21:24:45;;;;;;;;;;;19.90;29.00;;;;;;8367964;28;19912;-44
2023/02/26 21:28:47;;;;;;;;;;;19.90;29.40;;;;;;8368480;28;19999;-44
2023/02/26 21:32:47;;;;;;;;;;;19.90;29.00;;;;;;8368303;28;20397;-42
2023/02/26 21:36:48;;;;;;;;;;;19.80;29.00;;;;;;8367521;28;19925;-43
2023/02/26 21:40:48;;;;;;;;;;;19.80;28.90;;;;;;8367841;28;19923;-44
2023/02/26 21:44:49;;;;;;;;;;;19.80;28.90;;;;;;8367893;28;19920;-43
2023/02/26 21:48:50;;;;;;;;;;;19.70;28.90;;;;;;8367133;28;20293;-43
2023/02/26 21:52:50;;;;;;;;;;;19.70;29.00;;;;;;8367738;28;19917;-44
2023/02/26 21:56:51;;;;;;;;;;;19.60;29.00;;;;;;8367234;28;19924;-44
2023/02/26 22:00:51;;;;;;;;;;;19.60;29.10;;;;;;8366732;28;20031;-43
2023/02/26 22:04:52;;;;;;;;;;;19.50;29.00;;;;;;8367183;28;20342;-44
2023/02/26 22:08:52;;;;;;;;;;;19.50;29.20;;;;;;8367060;28;20373;-44
2023/02/26 22:12:52;;;;;;;;;;;19.40;29.20;;;;;;8366189;28;19917;-44
2023/02/26 22:16:53;;;;;;;;;;;19.40;29.20;;;;;;8365750;28;20279;-44
2023/02/26 22:20:54;;;;;;;;;;;19.30;29.30;;;;;;8366599;28;19917;-44
2023/02/26 22:24:54;;;;;;;;;;;19.30;29.30;;;;;;8366354;28;19913;-43
2023/02/26 22:28:56;;;;;;;;;;;19.30;29.30;;;;;;8366616;28;20370;-44
2023/02/26 22:32:56;;;;;;;;;;;19.20;29.30;;;;;;8366322;28;19917;-44
2023/02/26 22:36:57;;;;;;;;;;;19.20;29.40;;;;;;8365619;28;20335;-45
2023/02/26 22:40:57;;;;;;;;;;;19.20;29.40;;;;;;8366382;28;19916;-44
2023/02/26 22:44:58;;;;;;;;;;;19.20;29.40;;;;;;8366253;28;19920;-43
2023/02/26 22:48:58;;;;;;;;;;;19.10;29.40;;;;;;8365440;28;20362;-44
2023/02/26 22:52:59;;;;;;;;;;;19.00;29.40;;;;;;8366559;28;19920;-44
2023/02/26 22:56:59;;;;;;;;;;;19.00;29.40;;;;;;8365526;28;20007;-43
2023/02/26 23:01:00;;;;;;;;;;;19.00;29.50;;;;;;8364333;28;20007;-43
2023/02/26 23:05:00;;;;;;;;;;;19.00;29.50;;;;;;8365874;28;19913;-44
2023/02/26 23:09:01;;;;;;;;;;;19.00;29.50;;;;;;8337795;28;19924;-44
2023/02/26 23:13:02;;;;;;;;;;;18.90;29.50;;;;;;8350904;28;19972;-44
2023/02/26 23:17:03;;;;;;;;;;;18.90;29.60;;;;;;8364834;28;20370;-44
2023/02/26 23:21:04;;;;;;;;;;;18.80;29.50;;;;;;8364959;28;20278;-44
2023/02/26 23:25:05;;;;;;;;;;;18.80;29.50;;;;;;8364433;28;20030;-43
2023/02/26 23:29:05;;;;;;;;;;;18.80;29.60;;;;;;8364644;28;19917;-44
2023/02/26 23:33:06;;;;;;;;;;;18.80;29.50;;;;;;8364372;28;19924;-43